sensor_id;sensor_type;location;lat;lon;timestamp;pressure;altitude;pressure_sealevel;temperature;humidity
68758;BME280;55747;51.998;4.466;2023-04-07T00:00:16;56506.78;;;-144.48;100.00
68758;BME280;55747;51.998;4.466;2023-04-07T00:02:42;56504.72;;;-144.48;100.00
68758;BME280;55747;51.998;4.466;2023-04-07T00:05:07;56488.19;;;-144.48;100.00
68758;BME280;55747;51.998;4.466;2023-04-07T00:07:32;56500.59;;;-144.48;100.00
68758;BME280;55747;51.998;4.466;2023-04-07T00:09:57;56494.38;;;-144.48;100.00
68758;BME280;55747;51.998;4.466;2023-04-07T00:12:23;56488.19;;;-144.48;100.00
68758;BME280;55747;51.998;4.466;2023-04-07T00:14:48;56527.47;;;-144.48;100.00
68758;BME280;55747;51.998;4.466;2023-04-07T00:17:14;56515.06;;;-144.48;100.00
68758;BME280;55747;51.998;4.466;2023-04-07T00:19:39;56513.00;;;-144.48;100.00
68758;BME280;55747;51.998;4.466;2023-04-07T00:22:04;56496.44;;;-144.48;100.00
68758;BME280;55747;51.998;4.466;2023-04-07T00:24:30;56515.06;;;-144.48;100.00
68758;BME280;55747;51.998;4.466;2023-04-07T00:26:55;56525.41;;;-144.48;100.00
68758;BME280;55747;51.998;4.466;2023-04-07T00:29:20;56513.00;;;-144.48;100.00
68758;BME280;55747;51.998;4.466;2023-04-07T00:31:46;56504.72;;;-144.48;100.00
68758;BME280;55747;51.998;4.466;2023-04-07T00:34:11;56519.19;;;-144.48;100.00
68758;BME280;55747;51.998;4.466;2023-04-07T00:36:36;56504.72;;;-144.48;100.00
68758;BME280;55747;51.998;4.466;2023-04-07T00:39:01;56548.13;;;-144.48;100.00
68758;BME280;55747;51.998;4.466;2023-04-07T00:41:27;56531.59;;;-144.48;100.00
68758;BME280;55747;51.998;4.466;2023-04-07T00:43:52;56525.41;;;-144.48;100.00
68758;BME280;55747;51.998;4.466;2023-04-07T00:46:18;56504.72;;;-144.48;100.00
68758;BME280;55747;51.998;4.466;2023-04-07T00:48:46;56535.75;;;-144.48;100.00
68758;BME280;55747;51.998;4.466;2023-04-07T00:51:14;56504.72;;;-144.48;100.00
68758;BME280;55747;51.998;4.466;2023-04-07T00:53:39;56508.84;;;-144.48;100.00
68758;BME280;55747;51.998;4.466;2023-04-07T00:56:05;56517.13;;;-144.48;100.00
68758;BME280;55747;51.998;4.466;2023-04-07T00:58:30;56521.25;;;-144.48;100.00
68758;BME280;55747;51.998;4.466;2023-04-07T01:01:12;56496.44;;;-144.48;100.00
68758;BME280;55747;51.998;4.466;2023-04-07T01:03:44;56488.19;;;-144.48;100.00
68758;BME280;55747;51.998;4.466;2023-04-07T01:06:10;56494.38;;;-144.48;100.00
68758;BME280;55747;51.998;4.466;2023-04-07T01:11:22;56521.25;;;-144.48;100.00
68758;BME280;55747;51.998;4.466;2023-04-07T01:13:48;56496.44;;;-144.48;100.00
68758;BME280;55747;51.998;4.466;2023-04-07T01:16:15;56500.59;;;-144.48;100.00
68758;BME280;55747;51.998;4.466;2023-04-07T01:18:41;56519.19;;;-144.48;100.00
68758;BME280;55747;51.998;4.466;2023-04-07T01:21:17;56506.78;;;-144.48;100.00
68758;BME280;55747;51.998;4.466;2023-04-07T01:26:27;56508.84;;;-144.48;100.00
68758;BME280;55747;51.998;4.466;2023-04-07T01:31:25;56529.53;;;-144.48;100.00
68758;BME280;55747;51.998;4.466;2023-04-07T01:33:50;56515.06;;;-144.48;100.00
68758;BME280;55747;51.998;4.466;2023-04-07T01:36:16;56529.53;;;-144.48;100.00
68758;BME280;55747;51.998;4.466;2023-04-07T01:38:43;56504.72;;;-144.48;100.00
68758;BME280;55747;51.998;4.466;2023-04-07T01:41:08;56531.59;;;-144.48;100.00
68758;BME280;55747;51.998;4.466;2023-04-07T01:43:34;56510.94;;;-144.48;100.00
68758;BME280;55747;51.998;4.466;2023-04-07T01:46:00;56515.06;;;-144.48;100.00
68758;BME280;55747;51.998;4.466;2023-04-07T01:48:26;56541.94;;;-144.48;100.00
68758;BME280;55747;51.998;4.466;2023-04-07T01:50:52;56535.75;;;-144.48;100.00
68758;BME280;55747;51.998;4.466;2023-04-07T01:53:18;56533.66;;;-144.48;100.00
68758;BME280;55747;51.998;4.466;2023-04-07T01:55:44;56510.94;;;-144.48;100.00
68758;BME280;55747;51.998;4.466;2023-04-07T01:58:09;56510.94;;;-144.48;100.00
68758;BME280;55747;51.998;4.466;2023-04-07T02:00:35;56539.88;;;-144.48;100.00
68758;BME280;55747;51.998;4.466;2023-04-07T02:03:04;56510.94;;;-144.48;100.00
68758;BME280;55747;51.998;4.466;2023-04-07T02:05:31;56502.66;;;-144.48;100.00
68758;BME280;55747;51.998;4.466;2023-04-07T02:07:59;56496.44;;;-144.48;100.00
68758;BME280;55747;51.998;4.466;2023-04-07T02:10:25;56535.75;;;-144.48;100.00
68758;BME280;55747;51.998;4.466;2023-04-07T02:12:52;56546.06;;;-144.48;100.00
68758;BME280;55747;51.998;4.466;2023-04-07T02:15:18;56539.88;;;-144.48;100.00
68758;BME280;55747;51.998;4.466;2023-04-07T02:17:46;56513.00;;;-144.48;100.00
68758;BME280;55747;51.998;4.466;2023-04-07T02:20:11;56515.06;;;-144.48;100.00
68758;BME280;55747;51.998;4.466;2023-04-07T02:22:40;56496.44;;;-144.48;100.00
68758;BME280;55747;51.998;4.466;2023-04-07T02:25:21;56486.13;;;-144.48;100.00
68758;BME280;55747;51.998;4.466;2023-04-07T02:27:47;56544.00;;;-144.48;100.00
68758;BME280;55747;51.998;4.466;2023-04-07T02:30:12;56550.22;;;-144.48;100.00
68758;BME280;55747;51.998;4.466;2023-04-07T02:32:38;56525.41;;;-144.48;100.00
68758;BME280;55747;51.998;4.466;2023-04-07T02:35:03;56529.53;;;-144.48;100.00
68758;BME280;55747;51.998;4.466;2023-04-07T02:37:31;56525.41;;;-144.48;100.00
68758;BME280;55747;51.998;4.466;2023-04-07T02:39:56;56525.41;;;-144.48;100.00
68758;BME280;55747;51.998;4.466;2023-04-07T02:42:22;56515.06;;;-144.48;100.00
68758;BME280;55747;51.998;4.466;2023-04-07T02:44:47;56525.41;;;-144.48;100.00
68758;BME280;55747;51.998;4.466;2023-04-07T02:47:12;56548.13;;;-144.48;100.00
68758;BME280;55747;51.998;4.466;2023-04-07T02:49:37;56506.78;;;-144.48;100.00
68758;BME280;55747;51.998;4.466;2023-04-07T02:52:03;56529.53;;;-144.48;100.00
68758;BME280;55747;51.998;4.466;2023-04-07T02:54:28;56506.78;;;-144.48;100.00
68758;BME280;55747;51.998;4.466;2023-04-07T02:56:53;56541.94;;;-144.48;100.00
68758;BME280;55747;51.998;4.466;2023-04-07T02:59:20;56525.41;;;-144.48;100.00
68758;BME280;55747;51.998;4.466;2023-04-07T03:01:46;56525.41;;;-144.48;100.00
68758;BME280;55747;51.998;4.466;2023-04-07T03:04:11;56537.81;;;-144.48;100.00
68758;BME280;55747;51.998;4.466;2023-04-07T03:06:38;56535.75;;;-144.48;100.00
68758;BME280;55747;51.998;4.466;2023-04-07T03:09:03;56498.53;;;-144.48;100.00
68758;BME280;55747;51.998;4.466;2023-04-07T03:11:28;56519.19;;;-144.48;100.00
68758;BME280;55747;51.998;4.466;2023-04-07T03:13:53;56544.00;;;-144.48;100.00
68758;BME280;55747;51.998;4.466;2023-04-07T03:16:18;56504.72;;;-144.48;100.00
68758;BME280;55747;51.998;4.466;2023-04-07T03:18:44;56535.75;;;-144.48;100.00
68758;BME280;55747;51.998;4.466;2023-04-07T03:21:09;56510.94;;;-144.48;100.00
68758;BME280;55747;51.998;4.466;2023-04-07T03:23:34;56535.75;;;-144.48;100.00
68758;BME280;55747;51.998;4.466;2023-04-07T03:26:00;56537.81;;;-144.48;100.00
68758;BME280;55747;51.998;4.466;2023-04-07T03:28:25;56500.59;;;-144.48;100.00
68758;BME280;55747;51.998;4.466;2023-04-07T03:30:50;56531.59;;;-144.48;100.00
68758;BME280;55747;51.998;4.466;2023-04-07T03:33:17;56544.00;;;-144.48;100.00
68758;BME280;55747;51.998;4.466;2023-04-07T03:35:42;56523.34;;;-144.48;100.00
68758;BME280;55747;51.998;4.466;2023-04-07T03:38:07;56515.06;;;-144.48;100.00
68758;BME280;55747;51.998;4.466;2023-04-07T03:40:32;56513.00;;;-144.48;100.00
68758;BME280;55747;51.998;4.466;2023-04-07T03:42:59;56519.19;;;-144.48;100.00
68758;BME280;55747;51.998;4.466;2023-04-07T03:45:25;56521.25;;;-144.48;100.00
68758;BME280;55747;51.998;4.466;2023-04-07T03:47:50;56546.06;;;-144.48;100.00
68758;BME280;55747;51.998;4.466;2023-04-07T03:50:15;56508.84;;;-144.48;100.00
68758;BME280;55747;51.998;4.466;2023-04-07T03:52:41;56519.19;;;-144.48;100.00
68758;BME280;55747;51.998;4.466;2023-04-07T03:55:06;56531.59;;;-144.48;100.00
68758;BME280;55747;51.998;4.466;2023-04-07T03:57:32;56541.94;;;-144.48;100.00
68758;BME280;55747;51.998;4.466;2023-04-07T03:59:57;56515.06;;;-144.48;100.00
68758;BME280;55747;51.998;4.466;2023-04-07T04:02:22;56581.22;;;-144.48;100.00
68758;BME280;55747;51.998;4.466;2023-04-07T04:04:47;56558.47;;;-144.48;100.00
68758;BME280;55747;51.998;4.466;2023-04-07T04:07:12;56541.94;;;-144.48;100.00
68758;BME280;55747;51.998;4.466;2023-04-07T04:09:38;56552.28;;;-144.48;100.00
68758;BME280;55747;51.998;4.466;2023-04-07T04:12:03;56531.59;;;-144.48;100.00
68758;BME280;55747;51.998;4.466;2023-04-07T04:14:28;56513.00;;;-144.48;100.00
68758;BME280;55747;51.998;4.466;2023-04-07T04:16:53;56515.06;;;-144.48;100.00
68758;BME280;55747;51.998;4.466;2023-04-07T04:19:19;56519.19;;;-144.48;100.00
68758;BME280;55747;51.998;4.466;2023-04-07T04:21:44;56517.13;;;-144.48;100.00
68758;BME280;55747;51.998;4.466;2023-04-07T04:24:10;56568.81;;;-144.48;100.00
68758;BME280;55747;51.998;4.466;2023-04-07T04:26:35;56533.66;;;-144.48;100.00
68758;BME280;55747;51.998;4.466;2023-04-07T04:29:01;56529.53;;;-144.48;100.00
68758;BME280;55747;51.998;4.466;2023-04-07T04:31:27;56533.66;;;-144.48;100.00
68758;BME280;55747;51.998;4.466;2023-04-07T04:33:54;56539.88;;;-144.48;100.00
68758;BME280;55747;51.998;4.466;2023-04-07T04:36:20;56541.94;;;-144.48;100.00
68758;BME280;55747;51.998;4.466;2023-04-07T04:38:45;56544.00;;;-144.48;100.00
68758;BME280;55747;51.998;4.466;2023-04-07T04:41:10;56550.22;;;-144.48;100.00
68758;BME280;55747;51.998;4.466;2023-04-07T04:43:36;56523.34;;;-144.48;100.00
68758;BME280;55747;51.998;4.466;2023-04-07T04:46:01;56577.09;;;-144.48;100.00
68758;BME280;55747;51.998;4.466;2023-04-07T04:48:26;56541.94;;;-144.48;100.00
68758;BME280;55747;51.998;4.466;2023-04-07T04:50:51;56523.34;;;-144.48;100.00
68758;BME280;55747;51.998;4.466;2023-04-07T04:53:17;56541.94;;;-144.48;100.00
68758;BME280;55747;51.998;4.466;2023-04-07T04:55:42;56554.34;;;-144.48;100.00
68758;BME280;55747;51.998;4.466;2023-04-07T04:58:11;56583.28;;;-144.48;100.00
68758;BME280;55747;51.998;4.466;2023-04-07T05:00:36;56527.47;;;-144.48;100.00
68758;BME280;55747;51.998;4.466;2023-04-07T05:03:04;56548.13;;;-144.48;100.00
68758;BME280;55747;51.998;4.466;2023-04-07T05:05:29;56537.81;;;-144.48;100.00
68758;BME280;55747;51.998;4.466;2023-04-07T05:07:55;56544.00;;;-144.48;100.00
68758;BME280;55747;51.998;4.466;2023-04-07T05:10:20;56527.47;;;-144.48;100.00
68758;BME280;55747;51.998;4.466;2023-04-07T05:12:45;56541.94;;;-144.48;100.00
68758;BME280;55747;51.998;4.466;2023-04-07T05:15:10;56546.06;;;-144.48;100.00
68758;BME280;55747;51.998;4.466;2023-04-07T05:17:36;56560.53;;;-144.48;100.00
68758;BME280;55747;51.998;4.466;2023-04-07T05:20:01;56541.94;;;-144.48;100.00
68758;BME280;55747;51.998;4.466;2023-04-07T05:22:27;56521.25;;;-144.48;100.00
68758;BME280;55747;51.998;4.466;2023-04-07T05:24:55;56564.69;;;-144.48;100.00
68758;BME280;55747;51.998;4.466;2023-04-07T05:27:20;56560.53;;;-144.48;100.00
68758;BME280;55747;51.998;4.466;2023-04-07T05:29:45;56535.75;;;-144.48;100.00
68758;BME280;55747;51.998;4.466;2023-04-07T05:32:16;56562.63;;;-144.48;100.00
68758;BME280;55747;51.998;4.466;2023-04-07T05:34:41;56562.63;;;-144.48;100.00
68758;BME280;55747;51.998;4.466;2023-04-07T05:37:08;56560.53;;;-144.48;100.00
68758;BME280;55747;51.998;4.466;2023-04-07T05:39:33;56546.06;;;-144.48;100.00
68758;BME280;55747;51.998;4.466;2023-04-07T05:41:58;56556.41;;;-144.48;100.00
68758;BME280;55747;51.998;4.466;2023-04-07T05:44:25;56558.47;;;-144.48;100.00
68758;BME280;55747;51.998;4.466;2023-04-07T05:46:50;56564.69;;;-144.48;100.00
68758;BME280;55747;51.998;4.466;2023-04-07T05:49:15;56589.50;;;-144.48;100.00
68758;BME280;55747;51.998;4.466;2023-04-07T05:51:43;56535.75;;;-144.48;100.00
68758;BME280;55747;51.998;4.466;2023-04-07T05:54:08;56562.63;;;-144.48;100.00
68758;BME280;55747;51.998;4.466;2023-04-07T05:56:34;56548.13;;;-144.48;100.00
68758;BME280;55747;51.998;4.466;2023-04-07T05:58:59;56537.81;;;-144.48;100.00
68758;BME280;55747;51.998;4.466;2023-04-07T06:01:25;56535.75;;;-144.48;100.00
68758;BME280;55747;51.998;4.466;2023-04-07T06:03:51;56539.88;;;-144.48;100.00
68758;BME280;55747;51.998;4.466;2023-04-07T06:06:16;56562.63;;;-144.48;100.00
68758;BME280;55747;51.998;4.466;2023-04-07T06:08:41;56585.34;;;-144.48;100.00
68758;BME280;55747;51.998;4.466;2023-04-07T06:11:06;56554.34;;;-144.48;100.00
68758;BME280;55747;51.998;4.466;2023-04-07T06:13:32;56558.47;;;-144.48;100.00
68758;BME280;55747;51.998;4.466;2023-04-07T06:15:57;56562.63;;;-144.48;100.00
68758;BME280;55747;51.998;4.466;2023-04-07T06:18:22;56523.34;;;-144.48;100.00
68758;BME280;55747;51.998;4.466;2023-04-07T06:20:47;56606.03;;;-144.48;100.00
68758;BME280;55747;51.998;4.466;2023-04-07T06:23:12;56564.69;;;-144.48;100.00
68758;BME280;55747;51.998;4.466;2023-04-07T06:25:38;56550.22;;;-144.48;100.00
68758;BME280;55747;51.998;4.466;2023-04-07T06:28:03;56556.41;;;-144.48;100.00
68758;BME280;55747;51.998;4.466;2023-04-07T06:30:28;56533.66;;;-144.48;100.00
68758;BME280;55747;51.998;4.466;2023-04-07T06:32:54;56616.38;;;-144.48;100.00
68758;BME280;55747;51.998;4.466;2023-04-07T06:35:19;56560.53;;;-144.48;100.00
68758;BME280;55747;51.998;4.466;2023-04-07T06:37:45;56562.63;;;-144.48;100.00
68758;BME280;55747;51.998;4.466;2023-04-07T06:40:10;56570.88;;;-144.48;100.00
68758;BME280;55747;51.998;4.466;2023-04-07T06:42:35;56591.56;;;-144.48;100.00
68758;BME280;55747;51.998;4.466;2023-04-07T06:45:00;56558.47;;;-144.48;100.00
68758;BME280;55747;51.998;4.466;2023-04-07T06:47:26;56581.22;;;-144.48;100.00
68758;BME280;55747;51.998;4.466;2023-04-07T06:49:52;56603.97;;;-144.48;100.00
68758;BME280;55747;51.998;4.466;2023-04-07T06:52:17;56572.94;;;-144.48;100.00
68758;BME280;55747;51.998;4.466;2023-04-07T06:54:42;56541.94;;;-144.48;100.00
68758;BME280;55747;51.998;4.466;2023-04-07T06:57:08;56552.28;;;-144.48;100.00
68758;BME280;55747;51.998;4.466;2023-04-07T06:59:36;56587.41;;;-144.48;100.00
68758;BME280;55747;51.998;4.466;2023-04-07T07:02:01;56577.09;;;-144.48;100.00
68758;BME280;55747;51.998;4.466;2023-04-07T07:04:29;56558.47;;;-144.48;100.00
68758;BME280;55747;51.998;4.466;2023-04-07T07:06:55;56626.72;;;-144.48;100.00
68758;BME280;55747;51.998;4.466;2023-04-07T07:09:20;56606.03;;;-144.48;100.00
68758;BME280;55747;51.998;4.466;2023-04-07T07:11:45;56583.28;;;-144.48;100.00
68758;BME280;55747;51.998;4.466;2023-04-07T07:14:12;56622.56;;;-144.48;100.00
68758;BME280;55747;51.998;4.466;2023-04-07T07:16:37;56599.81;;;-144.48;100.00
68758;BME280;55747;51.998;4.466;2023-04-07T07:19:02;56593.63;;;-144.48;100.00
68758;BME280;55747;51.998;4.466;2023-04-07T07:21:28;56581.22;;;-144.48;100.00
68758;BME280;55747;51.998;4.466;2023-04-07T07:23:56;56550.22;;;-144.48;100.00
68758;BME280;55747;51.998;4.466;2023-04-07T07:26:21;56554.34;;;-144.48;100.00
68758;BME280;55747;51.998;4.466;2023-04-07T07:28:46;56593.63;;;-144.48;100.00
68758;BME280;55747;51.998;4.466;2023-04-07T07:31:12;56601.91;;;-144.48;100.00
68758;BME280;55747;51.998;4.466;2023-04-07T07:33:39;56585.34;;;-144.48;100.00
68758;BME280;55747;51.998;4.466;2023-04-07T07:36:05;56618.44;;;-144.48;100.00
68758;BME280;55747;51.998;4.466;2023-04-07T07:38:30;56577.09;;;-144.48;100.00
68758;BME280;55747;51.998;4.466;2023-04-07T07:40:55;56591.56;;;-144.48;100.00
68758;BME280;55747;51.998;4.466;2023-04-07T07:43:21;56589.50;;;-144.48;100.00
68758;BME280;55747;51.998;4.466;2023-04-07T07:45:46;56597.75;;;-144.48;100.00
68758;BME280;55747;51.998;4.466;2023-04-07T07:48:11;56620.50;;;-144.48;100.00
68758;BME280;55747;51.998;4.466;2023-04-07T07:50:37;56601.91;;;-144.48;100.00
68758;BME280;55747;51.998;4.466;2023-04-07T07:53:04;56572.94;;;-144.48;100.00
68758;BME280;55747;51.998;4.466;2023-04-07T07:55:29;56558.47;;;-144.48;100.00
68758;BME280;55747;51.998;4.466;2023-04-07T07:57:55;56570.88;;;-144.48;100.00
68758;BME280;55747;51.998;4.466;2023-04-07T08:00:20;56564.69;;;-144.48;100.00
68758;BME280;55747;51.998;4.466;2023-04-07T08:02:46;56593.63;;;-144.48;100.00
68758;BME280;55747;51.998;4.466;2023-04-07T08:05:11;56562.63;;;-144.48;100.00
68758;BME280;55747;51.998;4.466;2023-04-07T08:07:36;56568.81;;;-144.48;100.00
68758;BME280;55747;51.998;4.466;2023-04-07T08:10:02;56583.28;;;-144.48;100.00
68758;BME280;55747;51.998;4.466;2023-04-07T08:12:27;56554.34;;;-144.48;100.00
68758;BME280;55747;51.998;4.466;2023-04-07T08:14:52;56568.81;;;-144.48;100.00
68758;BME280;55747;51.998;4.466;2023-04-07T08:17:17;56583.28;;;-144.48;100.00
68758;BME280;55747;51.998;4.466;2023-04-07T08:19:43;56593.63;;;-144.48;100.00
68758;BME280;55747;51.998;4.466;2023-04-07T08:22:08;56568.81;;;-144.48;100.00
68758;BME280;55747;51.998;4.466;2023-04-07T08:24:33;56552.28;;;-144.48;100.00
68758;BME280;55747;51.998;4.466;2023-04-07T08:26:58;56568.81;;;-144.48;100.00
68758;BME280;55747;51.998;4.466;2023-04-07T08:29:23;56531.59;;;-144.48;100.00
68758;BME280;55747;51.998;4.466;2023-04-07T08:31:49;56529.53;;;-144.48;100.00
68758;BME280;55747;51.998;4.466;2023-04-07T08:34:14;56583.28;;;-144.48;100.00
68758;BME280;55747;51.998;4.466;2023-04-07T08:36:40;56581.22;;;-144.48;100.00
68758;BME280;55747;51.998;4.466;2023-04-07T08:39:05;56546.06;;;-144.48;100.00
68758;BME280;55747;51.998;4.466;2023-04-07T08:43:56;56554.34;;;-144.48;100.00
68758;BME280;55747;51.998;4.466;2023-04-07T08:46:22;56564.69;;;-144.48;100.00
68758;BME280;55747;51.998;4.466;2023-04-07T08:48:50;56566.75;;;-144.48;100.00
68758;BME280;55747;51.998;4.466;2023-04-07T08:51:15;56558.47;;;-144.48;100.00
68758;BME280;55747;51.998;4.466;2023-04-07T08:53:47;56544.00;;;-144.48;100.00
68758;BME280;55747;51.998;4.466;2023-04-07T08:56:16;56585.34;;;-144.48;100.00
68758;BME280;55747;51.998;4.466;2023-04-07T08:58:41;56591.56;;;-144.48;100.00
68758;BME280;55747;51.998;4.466;2023-04-07T09:01:08;56593.63;;;-144.48;100.00
68758;BME280;55747;51.998;4.466;2023-04-07T09:03:33;56583.28;;;-144.48;100.00
68758;BME280;55747;51.998;4.466;2023-04-07T09:06:01;56589.50;;;-144.48;100.00
68758;BME280;55747;51.998;4.466;2023-04-07T09:08:26;56585.34;;;-144.48;100.00
68758;BME280;55747;51.998;4.466;2023-04-07T09:10:52;56599.81;;;-144.48;100.00
68758;BME280;55747;51.998;4.466;2023-04-07T09:13:17;56585.34;;;-144.48;100.00
68758;BME280;55747;51.998;4.466;2023-04-07T09:15:43;56556.41;;;-144.48;100.00
68758;BME280;55747;51.998;4.466;2023-04-07T09:18:08;56564.69;;;-144.48;100.00
68758;BME280;55747;51.998;4.466;2023-04-07T09:23:27;56601.91;;;-144.48;100.00
68758;BME280;55747;51.998;4.466;2023-04-07T09:25:55;56550.22;;;-144.48;100.00
68758;BME280;55747;51.998;4.466;2023-04-07T09:28:23;56544.00;;;-144.48;100.00
68758;BME280;55747;51.998;4.466;2023-04-07T09:30:52;56523.34;;;-144.48;100.00
68758;BME280;55747;51.998;4.466;2023-04-07T09:33:25;56564.69;;;-144.48;100.00
68758;BME280;55747;51.998;4.466;2023-04-07T09:35:51;56560.53;;;-144.48;100.00
68758;BME280;55747;51.998;4.466;2023-04-07T09:38:19;56566.75;;;-144.48;100.00
68758;BME280;55747;51.998;4.466;2023-04-07T09:40:44;56564.69;;;-144.48;100.00
68758;BME280;55747;51.998;4.466;2023-04-07T09:43:16;56575.03;;;-144.48;100.00
68758;BME280;55747;51.998;4.466;2023-04-07T09:45:42;56597.75;;;-144.48;100.00
68758;BME280;55747;51.998;4.466;2023-04-07T09:48:16;56562.63;;;-144.48;100.00
68758;BME280;55747;51.998;4.466;2023-04-07T09:50:42;56577.09;;;-144.48;100.00
68758;BME280;55747;51.998;4.466;2023-04-07T09:53:09;56550.22;;;-144.48;100.00
68758;BME280;55747;51.998;4.466;2023-04-07T09:55:35;56562.63;;;-144.48;100.00
68758;BME280;55747;51.998;4.466;2023-04-07T09:58:00;56548.13;;;-144.48;100.00
68758;BME280;55747;51.998;4.466;2023-04-07T10:00:26;56562.63;;;-144.48;100.00
68758;BME280;55747;51.998;4.466;2023-04-07T10:02:51;56554.34;;;-144.48;100.00
68758;BME280;55747;51.998;4.466;2023-04-07T10:05:17;56539.88;;;-144.48;100.00
68758;BME280;55747;51.998;4.466;2023-04-07T10:07:47;56537.81;;;-144.48;100.00
68758;BME280;55747;51.998;4.466;2023-04-07T10:10:13;56562.63;;;-144.48;100.00
68758;BME280;55747;51.998;4.466;2023-04-07T10:12:38;56535.75;;;-144.48;100.00
68758;BME280;55747;51.998;4.466;2023-04-07T10:15:09;56552.28;;;-144.48;100.00
68758;BME280;55747;51.998;4.466;2023-04-07T10:17:40;56560.53;;;-144.48;100.00
68758;BME280;55747;51.998;4.466;2023-04-07T10:20:17;56566.75;;;-144.48;100.00
68758;BME280;55747;51.998;4.466;2023-04-07T10:22:45;56539.88;;;-144.48;100.00
68758;BME280;55747;51.998;4.466;2023-04-07T10:25:12;56554.34;;;-144.48;100.00
68758;BME280;55747;51.998;4.466;2023-04-07T10:27:45;56581.22;;;-144.48;100.00
68758;BME280;55747;51.998;4.466;2023-04-07T10:30:19;56566.75;;;-144.48;100.00
68758;BME280;55747;51.998;4.466;2023-04-07T10:32:49;56579.16;;;-144.48;100.00
68758;BME280;55747;51.998;4.466;2023-04-07T10:35:15;56566.75;;;-144.48;100.00
68758;BME280;55747;51.998;4.466;2023-04-07T10:40:38;56541.94;;;-144.48;100.00
68758;BME280;55747;51.998;4.466;2023-04-07T10:43:06;56556.41;;;-144.48;100.00
68758;BME280;55747;51.998;4.466;2023-04-07T10:48:26;56570.88;;;-144.48;100.00
68758;BME280;55747;51.998;4.466;2023-04-07T10:53:34;56521.25;;;-144.48;100.00
68758;BME280;55747;51.998;4.466;2023-04-07T10:56:02;56531.59;;;-144.48;100.00
68758;BME280;55747;51.998;4.466;2023-04-07T10:58:39;56595.69;;;-144.48;100.00
68758;BME280;55747;51.998;4.466;2023-04-07T11:03:55;56556.41;;;-144.48;100.00
68758;BME280;55747;51.998;4.466;2023-04-07T11:06:26;56589.50;;;-144.48;100.00
68758;BME280;55747;51.998;4.466;2023-04-07T11:08:52;56572.94;;;-144.48;100.00
68758;BME280;55747;51.998;4.466;2023-04-07T11:11:36;56579.16;;;-144.48;100.00
68758;BME280;55747;51.998;4.466;2023-04-07T11:14:02;56581.22;;;-144.48;100.00
68758;BME280;55747;51.998;4.466;2023-04-07T11:16:38;56539.88;;;-144.48;100.00
68758;BME280;55747;51.998;4.466;2023-04-07T11:19:04;56585.34;;;-144.48;100.00
68758;BME280;55747;51.998;4.466;2023-04-07T11:21:29;56585.34;;;-144.48;100.00
68758;BME280;55747;51.998;4.466;2023-04-07T11:23:56;56572.94;;;-144.48;100.00
68758;BME280;55747;51.998;4.466;2023-04-07T11:26:21;56595.69;;;-144.48;100.00
68758;BME280;55747;51.998;4.466;2023-04-07T11:28:48;56595.69;;;-144.48;100.00
68758;BME280;55747;51.998;4.466;2023-04-07T11:33:55;56562.63;;;-144.48;100.00
68758;BME280;55747;51.998;4.466;2023-04-07T11:38:52;56558.47;;;-144.48;100.00
68758;BME280;55747;51.998;4.466;2023-04-07T11:41:17;56562.63;;;-144.48;100.00
68758;BME280;55747;51.998;4.466;2023-04-07T11:43:43;56583.28;;;-144.48;100.00
68758;BME280;55747;51.998;4.466;2023-04-07T11:46:12;56566.75;;;-144.48;100.00
68758;BME280;55747;51.998;4.466;2023-04-07T11:48:39;56579.16;;;-144.48;100.00
68758;BME280;55747;51.998;4.466;2023-04-07T11:51:04;56566.75;;;-144.48;100.00
68758;BME280;55747;51.998;4.466;2023-04-07T11:53:31;56568.81;;;-144.48;100.00
68758;BME280;55747;51.998;4.466;2023-04-07T11:56:00;56546.06;;;-144.48;100.00
68758;BME280;55747;51.998;4.466;2023-04-07T11:58:25;56585.34;;;-144.48;100.00
68758;BME280;55747;51.998;4.466;2023-04-07T12:00:54;56554.34;;;-144.48;100.00
68758;BME280;55747;51.998;4.466;2023-04-07T12:03:21;56546.06;;;-144.48;97.49
68758;BME280;55747;51.998;4.466;2023-04-07T12:05:46;56548.13;;;-144.48;97.84
68758;BME280;55747;51.998;4.466;2023-04-07T12:08:14;56527.47;;;-144.48;98.07
68758;BME280;55747;51.998;4.466;2023-04-07T12:10:46;56558.47;;;-144.48;97.11
68758;BME280;55747;51.998;4.466;2023-04-07T12:13:12;56575.03;;;-144.48;96.16
68758;BME280;55747;51.998;4.466;2023-04-07T12:15:37;56593.63;;;-144.48;95.65
68758;BME280;55747;51.998;4.466;2023-04-07T12:18:03;56562.63;;;-144.48;96.54
68758;BME280;55747;51.998;4.466;2023-04-07T12:20:28;56585.34;;;-144.48;94.38
68758;BME280;55747;51.998;4.466;2023-04-07T12:22:53;56599.81;;;-144.48;93.51
68758;BME280;55747;51.998;4.466;2023-04-07T12:25:18;56601.91;;;-144.48;92.95
68758;BME280;55747;51.998;4.466;2023-04-07T12:27:44;56525.41;;;-144.48;90.60
68758;BME280;55747;51.998;4.466;2023-04-07T12:30:10;56558.47;;;-144.48;91.45
68758;BME280;55747;51.998;4.466;2023-04-07T12:32:36;56558.47;;;-144.48;90.57
68758;BME280;55747;51.998;4.466;2023-04-07T12:35:02;56546.06;;;-144.48;91.38
68758;BME280;55747;51.998;4.466;2023-04-07T12:37:27;56577.09;;;-144.48;91.08
68758;BME280;55747;51.998;4.466;2023-04-07T12:39:53;56558.47;;;-144.48;90.51
68758;BME280;55747;51.998;4.466;2023-04-07T12:42:18;56537.81;;;-144.48;91.21
68758;BME280;55747;51.998;4.466;2023-04-07T12:44:43;56566.75;;;-144.48;92.43
68758;BME280;55747;51.998;4.466;2023-04-07T12:47:08;56539.88;;;-144.48;93.51
68758;BME280;55747;51.998;4.466;2023-04-07T12:49:36;56539.88;;;-144.48;92.21
68758;BME280;55747;51.998;4.466;2023-04-07T12:52:01;56548.13;;;-144.48;92.07
68758;BME280;55747;51.998;4.466;2023-04-07T12:54:27;56562.63;;;-144.48;93.78